createdAt,value
2023-02-27T00:00:12.654Z,0.89
2023-02-27T00:01:29.642Z,0.74
2023-02-27T00:02:46.697Z,0.84
2023-02-27T00:04:03.665Z,1.01
2023-02-27T00:05:20.686Z,1.4
2023-02-27T00:06:37.597Z,0.83
2023-02-27T00:07:54.638Z,1
2023-02-27T00:09:11.651Z,0.78
2023-02-27T00:10:28.623Z,1.07
2023-02-27T00:11:45.626Z,0.83
2023-02-27T00:13:02.624Z,0.51
2023-02-27T00:14:19.667Z,0.53
2023-02-27T00:15:36.764Z,0.72
2023-02-27T00:16:53.624Z,0.39
2023-02-27T00:18:10.659Z,0.6
2023-02-27T00:19:27.725Z,0.59
2023-02-27T00:20:44.657Z,0.74
2023-02-27T00:22:01.612Z,0.44
2023-02-27T00:23:18.617Z,0.83
2023-02-27T00:24:35.661Z,0.73
2023-02-27T00:25:52.665Z,0.79
2023-02-27T00:27:09.627Z,1.1
2023-02-27T00:28:26.636Z,1.02
2023-02-27T00:29:43.675Z,1.08
2023-02-27T00:31:00.806Z,1.78
2023-02-27T00:32:17.689Z,1.12
2023-02-27T00:33:34.678Z,0.76
2023-02-27T00:34:51.625Z,0.75
2023-02-27T00:36:08.700Z,0.92
2023-02-27T00:37:25.638Z,1.78
2023-02-27T00:38:42.648Z,0.59
2023-02-27T00:39:59.637Z,0.65
2023-02-27T00:41:16.830Z,0.94
2023-02-27T00:42:33.684Z,1.25
2023-02-27T00:43:50.675Z,0.56
2023-02-27T00:45:07.763Z,0.78
2023-02-27T00:46:24.711Z,0.61
2023-02-27T00:47:41.652Z,0.61
2023-02-27T00:48:58.651Z,0.85
2023-02-27T00:50:15.683Z,0.85
2023-02-27T00:51:32.667Z,1.22
2023-02-27T00:52:49.692Z,0.7
2023-02-27T00:54:06.676Z,0.69
2023-02-27T00:55:25.287Z,0.98
2023-02-27T00:56:40.721Z,0.89
2023-02-27T00:57:57.673Z,0.98
2023-02-27T00:59:14.711Z,0.84
2023-02-27T01:00:31.791Z,1.03
2023-02-27T01:01:48.750Z,0.83
2023-02-27T01:03:05.686Z,1.4
2023-02-27T01:04:22.674Z,0.37
2023-02-27T01:05:39.714Z,0.89
2023-02-27T01:06:56.677Z,0.94
2023-02-27T01:08:13.686Z,1.18
2023-02-27T01:09:30.671Z,0.91
2023-02-27T01:10:47.715Z,0.48
2023-02-27T01:12:04.675Z,0.97
2023-02-27T01:13:21.684Z,0.51
2023-02-27T01:14:38.717Z,0.83
2023-02-27T01:15:55.729Z,0.97
2023-02-27T01:17:12.741Z,0.55
2023-02-27T01:18:29.705Z,0.79
2023-02-27T01:19:46.708Z,0.54
2023-02-27T01:21:03.731Z,0.82
2023-02-27T01:22:20.709Z,0.48
2023-02-27T01:23:37.726Z,0.78
2023-02-27T01:24:54.733Z,0.75
2023-02-27T01:26:11.735Z,0.99
2023-02-27T01:27:28.715Z,0.58
2023-02-27T01:28:45.702Z,0.84
2023-02-27T01:30:02.726Z,0.69
2023-02-27T01:31:19.813Z,1.07
2023-02-27T01:32:36.850Z,0.91
2023-02-27T01:33:53.712Z,0.79
2023-02-27T01:35:10.718Z,0.86
2023-02-27T01:36:27.757Z,1.13
2023-02-27T01:37:44.715Z,0.61
2023-02-27T01:39:01.769Z,0.86
2023-02-27T01:40:18.765Z,0.83
2023-02-27T01:41:35.803Z,0.47
2023-02-27T01:42:52.731Z,0.21
2023-02-27T01:44:09.728Z,1
2023-02-27T01:45:26.728Z,1
2023-02-27T01:46:43.765Z,0.96
2023-02-27T01:48:00.744Z,1.19
2023-02-27T01:49:17.813Z,1.11
2023-02-27T01:50:34.758Z,0.97
2023-02-27T01:51:51.726Z,1.29
2023-02-27T01:53:08.740Z,0.33
2023-02-27T01:54:25.778Z,0.58
2023-02-27T01:55:42.742Z,0.79
2023-02-27T01:56:59.773Z,0.55
2023-02-27T01:58:16.777Z,0.89
2023-02-27T01:59:33.738Z,0.67
2023-02-27T02:00:50.850Z,1.1
2023-02-27T02:02:07.801Z,1.01
2023-02-27T02:03:24.784Z,1.15
2023-02-27T02:04:41.774Z,0.9
2023-02-27T02:05:58.785Z,0.99
2023-02-27T02:07:15.832Z,0.75
2023-02-27T02:08:32.766Z,0.94
2023-02-27T02:09:49.760Z,0.52
2023-02-27T02:11:06.784Z,0.44
2023-02-27T02:12:23.783Z,0.95
2023-02-27T02:13:40.764Z,1.03
2023-02-27T02:14:57.758Z,0.74
2023-02-27T02:16:14.791Z,0.82
2023-02-27T02:17:31.810Z,0.73
2023-02-27T02:18:48.825Z,0.94
2023-02-27T02:20:05.881Z,0.72
2023-02-27T02:21:22.799Z,0.42
2023-02-27T02:22:39.831Z,0.46
2023-02-27T02:23:56.787Z,0.76
2023-02-27T02:25:13.794Z,0.53
2023-02-27T02:26:33.124Z,0.64
2023-02-27T02:27:47.849Z,0.61
2023-02-27T02:29:04.781Z,0.62
2023-02-27T02:30:21.822Z,0.73
2023-02-27T02:31:38.899Z,0.76
2023-02-27T02:32:55.834Z,0.69
2023-02-27T02:34:12.873Z,1.03
2023-02-27T02:35:29.809Z,0.59
2023-02-27T02:36:46.803Z,0.92
2023-02-27T02:38:03.789Z,0.94
2023-02-27T02:39:20.836Z,0.75
2023-02-27T02:40:37.817Z,1.23
2023-02-27T02:41:54.797Z,1.44
2023-02-27T02:43:11.838Z,0.53
2023-02-27T02:44:28.806Z,0.58
2023-02-27T02:45:45.869Z,0.54
2023-02-27T02:47:02.824Z,0.77
2023-02-27T02:48:19.836Z,1.32
2023-02-27T02:49:36.865Z,0.9
2023-02-27T02:50:53.860Z,1.4
2023-02-27T02:52:10.810Z,0.77
2023-02-27T02:53:36.010Z,0.96
2023-02-27T02:54:44.880Z,1.31
2023-02-27T02:56:01.843Z,0.67
2023-02-27T02:57:18.851Z,0.77
2023-02-27T02:58:35.815Z,0.91
2023-02-27T02:59:52.876Z,0.86
2023-02-27T03:01:09.843Z,1.2
2023-02-27T03:02:26.835Z,0.51
2023-02-27T03:03:43.834Z,1.1
2023-02-27T03:05:00.895Z,0.95
2023-02-27T03:06:17.900Z,1.15
2023-02-27T03:07:34.875Z,1.65
2023-02-27T03:08:51.827Z,1.04
2023-02-27T03:10:08.834Z,0.79
2023-02-27T03:11:26.211Z,0.9
2023-02-27T03:12:42.901Z,1.13
2023-02-27T03:13:59.850Z,1
2023-02-27T03:15:16.861Z,0.91
2023-02-27T03:16:33.886Z,1.04
2023-02-27T03:17:50.838Z,1
2023-02-27T03:19:07.882Z,1.1
2023-02-27T03:20:24.874Z,1.21
2023-02-27T03:21:41.868Z,0.81
2023-02-27T03:22:58.865Z,1.19
2023-02-27T03:24:15.838Z,0.94
2023-02-27T03:25:32.859Z,1.3
2023-02-27T03:26:50.011Z,1.26
2023-02-27T03:28:06.929Z,1
2023-02-27T03:29:23.878Z,0.77
2023-02-27T03:30:41.098Z,1.06
2023-02-27T03:31:57.987Z,0.47
2023-02-27T03:33:14.897Z,1.28
2023-02-27T03:34:31.861Z,1.44
2023-02-27T03:35:48.899Z,1.39
2023-02-27T03:37:05.854Z,1.48
2023-02-27T03:38:22.920Z,0.99
2023-02-27T03:39:39.957Z,1.15
2023-02-27T03:40:56.882Z,0.53
2023-02-27T03:42:13.917Z,1.46
2023-02-27T03:43:30.957Z,1.01
2023-02-27T03:44:47.901Z,0.93
2023-02-27T03:46:04.918Z,0.79
2023-02-27T03:47:21.917Z,1.42
2023-02-27T03:48:38.927Z,1.08
2023-02-27T03:49:55.873Z,0.79
2023-02-27T03:51:12.936Z,1.17
2023-02-27T03:52:29.879Z,0.96
2023-02-27T03:53:46.931Z,0.7
2023-02-27T03:55:03.932Z,1
2023-02-27T03:56:20.898Z,1.17
2023-02-27T03:57:37.898Z,1.11
2023-02-27T03:58:54.883Z,1.07
2023-02-27T04:00:11.900Z,0.83
2023-02-27T04:01:29.242Z,0.37
2023-02-27T04:02:45.903Z,0.71
2023-02-27T04:04:02.906Z,0.44
2023-02-27T04:05:19.903Z,0.88
2023-02-27T04:06:36.945Z,0.84
2023-02-27T04:07:53.920Z,0.29
2023-02-27T04:09:10.884Z,0.78
2023-02-27T04:10:27.919Z,0.58
2023-02-27T04:11:44.891Z,1.05
2023-02-27T04:13:02.634Z,0.77
2023-02-27T04:14:19.912Z,0.89
2023-02-27T04:15:36.906Z,0.6
2023-02-27T04:16:53.928Z,0.79
2023-02-27T04:18:10.990Z,0.77
2023-02-27T04:19:27.939Z,0.87
2023-02-27T04:20:44.934Z,0.67
2023-02-27T04:22:01.937Z,0.42
2023-02-27T04:23:18.943Z,0.3
2023-02-27T04:24:35.961Z,0.37
2023-02-27T04:25:52.921Z,0.62
2023-02-27T04:27:09.918Z,0.84
2023-02-27T04:28:26.949Z,0.54
2023-02-27T04:29:43.954Z,0.69
2023-02-27T04:31:01.024Z,0.71
2023-02-27T04:32:18.012Z,0.63
2023-02-27T04:33:34.960Z,0.65
2023-02-27T04:34:51.963Z,0.46
2023-02-27T04:36:09.918Z,0.75
2023-02-27T04:37:25.973Z,0.67
2023-02-27T04:38:42.957Z,0.91
2023-02-27T04:39:59.968Z,1.01
2023-02-27T04:41:16.974Z,1.16
2023-02-27T04:42:33.969Z,0.42
2023-02-27T04:43:51.026Z,1.01
2023-02-27T04:45:07.980Z,1.07
2023-02-27T04:46:24.956Z,0.89
2023-02-27T04:47:41.964Z,1.29
2023-02-27T04:48:59.032Z,0.69
2023-02-27T04:50:15.973Z,1.32
2023-02-27T04:51:32.955Z,0.89
2023-02-27T04:52:50.022Z,0.71
2023-02-27T04:54:06.953Z,0.52
2023-02-27T04:55:23.962Z,1.05
2023-02-27T04:56:40.974Z,1.97
2023-02-27T04:57:58.022Z,1.39
2023-02-27T04:59:14.996Z,0.89
2023-02-27T05:00:31.966Z,0.88
2023-02-27T05:01:49.063Z,0.74
2023-02-27T05:03:05.980Z,0.85
2023-02-27T05:04:23.026Z,0.88
2023-02-27T05:05:39.979Z,0.5
2023-02-27T05:06:56.973Z,0.49
2023-02-27T05:08:14.003Z,0.23
2023-02-27T05:09:30.991Z,0.61
2023-02-27T05:10:47.994Z,1.11
2023-02-27T05:12:05.011Z,0.65
2023-02-27T05:13:21.998Z,0.62
2023-02-27T05:14:39.014Z,1.48
2023-02-27T05:15:56.013Z,0.42
2023-02-27T05:17:13.009Z,0.81
2023-02-27T05:18:29.987Z,0.72
2023-02-27T05:19:47.095Z,1
2023-02-27T05:21:04.011Z,0.96
2023-02-27T05:22:21.006Z,0.92
2023-02-27T05:23:38.146Z,0.62
2023-02-27T05:24:55.026Z,0.74
2023-02-27T05:26:12.012Z,0.21
2023-02-27T05:27:29.010Z,0.69
2023-02-27T05:28:45.997Z,0
2023-02-27T05:30:03.147Z,0.25
2023-02-27T05:31:20.089Z,0.36
2023-02-27T05:32:37.043Z,0.11
2023-02-27T05:33:54.009Z,0.16
2023-02-27T05:35:11.066Z,0.4
2023-02-27T05:36:28.030Z,0.45
2023-02-27T05:37:45.052Z,0.35
2023-02-27T05:39:02.124Z,0.14
2023-02-27T05:40:19.089Z,0.29
2023-02-27T05:41:36.023Z,0.57
2023-02-27T05:42:53.044Z,0.71
2023-02-27T05:44:10.014Z,0.79
2023-02-27T05:45:27.064Z,0.72
2023-02-27T05:46:44.047Z,0.36
2023-02-27T05:48:01.043Z,0.99
2023-02-27T05:49:18.017Z,0.65
2023-02-27T05:50:35.074Z,0.6
2023-02-27T05:51:53.185Z,0.55
2023-02-27T05:53:10.060Z,0.94
2023-02-27T05:54:27.117Z,0.6
2023-02-27T05:55:44.092Z,0.82
2023-02-27T05:57:01.055Z,0.48
2023-02-27T05:58:18.075Z,1.06
2023-02-27T05:59:35.035Z,0.76
2023-02-27T06:00:52.086Z,0.53
2023-02-27T06:02:09.068Z,0.56
2023-02-27T06:03:26.145Z,0.59
2023-02-27T06:04:43.057Z,1.05
2023-02-27T06:06:00.046Z,0.76
2023-02-27T06:07:17.042Z,1.18
2023-02-27T06:08:34.223Z,0.75
2023-02-27T06:09:51.073Z,1.04
2023-02-27T06:11:08.102Z,0.9
2023-02-27T06:12:25.060Z,0.5
2023-02-27T06:13:42.357Z,1.2
2023-02-27T06:14:59.060Z,0.95
2023-02-27T06:16:16.193Z,0.99
2023-02-27T06:17:33.115Z,0.63
2023-02-27T06:18:50.123Z,0.84
2023-02-27T06:20:07.088Z,0.57
2023-02-27T06:21:24.107Z,0.71
2023-02-27T06:22:41.183Z,1.12
2023-02-27T06:23:58.092Z,0.77
2023-02-27T06:25:15.196Z,0.61
2023-02-27T06:26:32.224Z,1.06
2023-02-27T06:27:49.109Z,1.01
2023-02-27T06:29:06.100Z,1.36
2023-02-27T06:30:23.099Z,1.23
2023-02-27T06:31:40.141Z,0.65
2023-02-27T06:32:57.116Z,0.79
2023-02-27T06:34:14.177Z,1.02
2023-02-27T06:35:31.147Z,0.84
2023-02-27T06:36:48.132Z,0.71
2023-02-27T06:38:05.114Z,1.23
2023-02-27T06:39:22.090Z,1.13
2023-02-27T06:40:39.215Z,0.7
2023-02-27T06:41:56.102Z,0.82
2023-02-27T06:43:13.125Z,0.64
2023-02-27T06:44:30.168Z,0.78
2023-02-27T06:45:47.155Z,0.89
2023-02-27T06:47:04.132Z,0.83
2023-02-27T06:48:21.107Z,1.44
2023-02-27T06:49:38.462Z,0.84
2023-02-27T06:50:55.207Z,0.76
2023-02-27T06:52:12.367Z,0.67
2023-02-27T06:53:29.123Z,0.95
2023-02-27T06:54:46.298Z,0.9
2023-02-27T06:56:03.127Z,0.73
2023-02-27T06:57:20.177Z,1.13
2023-02-27T06:58:37.141Z,1.18
2023-02-27T06:59:54.132Z,1.44
2023-02-27T07:01:11.186Z,1
2023-02-27T07:02:28.186Z,0.84
2023-02-27T07:03:45.115Z,0.85
2023-02-27T07:05:05.301Z,0.74
2023-02-27T07:06:19.124Z,1.04
2023-02-27T07:07:37.629Z,1.26
2023-02-27T07:09:00.907Z,1.21
2023-02-27T07:10:10.143Z,0.68
2023-02-27T07:11:27.148Z,1.17
2023-02-27T07:12:44.146Z,0.84
2023-02-27T07:14:01.150Z,1.16
2023-02-27T07:15:18.133Z,0.74
2023-02-27T07:16:35.125Z,0.39
2023-02-27T07:17:52.202Z,0.71
2023-02-27T07:19:09.152Z,0.7
2023-02-27T07:20:26.162Z,0.78
2023-02-27T07:21:43.156Z,1
2023-02-27T07:23:00.190Z,1.29
2023-02-27T07:24:17.156Z,1.37
2023-02-27T07:25:34.158Z,1.04
2023-02-27T07:26:51.240Z,0.47
2023-02-27T07:28:08.222Z,0.9
2023-02-27T07:29:25.138Z,0.67
2023-02-27T07:30:42.173Z,0.72
2023-02-27T07:31:59.157Z,0.79
2023-02-27T07:33:16.234Z,0.96
2023-02-27T07:34:33.218Z,0.89
2023-02-27T07:35:50.187Z,0.63
2023-02-27T07:37:07.180Z,0.8
2023-02-27T07:38:24.218Z,0.7
2023-02-27T07:39:41.255Z,0.81
2023-02-27T07:40:58.162Z,0.58
2023-02-27T07:42:15.221Z,0.45
2023-02-27T07:43:32.244Z,0.31
2023-02-27T07:44:49.304Z,0.44
2023-02-27T07:46:06.292Z,0.54
2023-02-27T07:47:23.248Z,0.27
2023-02-27T07:48:40.211Z,0.3
2023-02-27T07:49:57.212Z,0.69
2023-02-27T07:51:14.166Z,1.09
2023-02-27T07:52:31.282Z,0.86
2023-02-27T07:53:48.195Z,0.85
2023-02-27T07:55:05.217Z,1.21
2023-02-27T07:56:22.277Z,1.14
2023-02-27T07:57:39.249Z,1.03
2023-02-27T07:58:56.274Z,1.43
2023-02-27T08:00:13.214Z,1.74
2023-02-27T08:01:30.231Z,1.06
2023-02-27T08:02:47.260Z,1.2
2023-02-27T08:04:04.199Z,0.99
2023-02-27T08:05:21.306Z,1.1
2023-02-27T08:06:38.227Z,1.79
2023-02-27T08:07:55.271Z,1.2
2023-02-27T08:09:12.215Z,1.15
2023-02-27T08:10:29.394Z,1.58
2023-02-27T08:11:48.851Z,0.84
2023-02-27T08:13:03.351Z,0.39
2023-02-27T08:14:20.240Z,0.47
2023-02-27T08:15:37.398Z,0.76
2023-02-27T08:16:54.353Z,0.81
2023-02-27T08:18:11.471Z,1.07
2023-02-27T08:19:28.293Z,0.66
2023-02-27T08:20:45.231Z,0.88
2023-02-27T08:22:02.290Z,0.7
2023-02-27T08:23:19.269Z,0.41
2023-02-27T08:24:36.452Z,0.66
2023-02-27T08:25:53.230Z,0.49
2023-02-27T08:27:10.249Z,0.66
2023-02-27T08:28:27.533Z,0.75
2023-02-27T08:29:44.334Z,0.77
2023-02-27T08:31:01.457Z,1.04
2023-02-27T08:32:18.351Z,0.52
2023-02-27T08:33:35.308Z,0.91
2023-02-27T08:34:52.277Z,1.08
2023-02-27T08:36:09.277Z,0.97
2023-02-27T08:37:26.348Z,0.9
2023-02-27T08:38:43.271Z,0.44
2023-02-27T08:40:00.317Z,0.8
2023-02-27T08:41:17.273Z,0.6
2023-02-27T08:42:34.259Z,0.63
2023-02-27T08:43:51.274Z,0.49
2023-02-27T08:45:08.416Z,0.73
2023-02-27T08:46:25.558Z,0.35
2023-02-27T08:47:42.309Z,0.1
2023-02-27T08:48:59.373Z,0.81
2023-02-27T08:50:16.505Z,0.39
2023-02-27T08:51:33.573Z,0.51
2023-02-27T08:52:50.256Z,0.52
2023-02-27T08:54:07.253Z,0.42
2023-02-27T08:55:24.330Z,0.43
2023-02-27T08:56:41.301Z,0.45
2023-02-27T08:57:58.337Z,0.56
2023-02-27T08:59:15.562Z,0.54
2023-02-27T09:00:32.442Z,0.4
2023-02-27T09:01:49.299Z,0.43
2023-02-27T09:03:06.300Z,0.92
2023-02-27T09:04:23.290Z,0.51
2023-02-27T09:05:40.313Z,0.53
2023-02-27T09:06:57.289Z,1.04
2023-02-27T09:08:14.303Z,0.88
2023-02-27T09:09:31.293Z,1.23
2023-02-27T09:10:48.278Z,0.62
2023-02-27T09:12:05.313Z,0.95
2023-02-27T09:13:22.322Z,0.72
2023-02-27T09:14:39.336Z,0.54
2023-02-27T09:15:56.281Z,0.53
2023-02-27T09:17:13.307Z,0.76
2023-02-27T09:18:30.350Z,0.62
2023-02-27T09:19:47.352Z,1.12
2023-02-27T09:21:04.384Z,0.63
2023-02-27T09:22:21.309Z,0.96
2023-02-27T09:23:38.535Z,1.8
2023-02-27T09:24:55.358Z,1.19
2023-02-27T09:26:12.319Z,1.78
2023-02-27T09:27:29.310Z,1.81
2023-02-27T09:28:46.328Z,0.67
2023-02-27T09:30:03.364Z,0.53
2023-02-27T09:31:20.342Z,1.05
2023-02-27T09:32:37.366Z,1.52
2023-02-27T09:33:54.390Z,0.95
2023-02-27T09:35:11.332Z,1.31
2023-02-27T09:36:28.684Z,0.52
2023-02-27T09:37:45.342Z,0.7
2023-02-27T09:39:02.337Z,0.78
2023-02-27T09:40:19.347Z,0.46
2023-02-27T09:41:36.321Z,0.76
2023-02-27T09:42:53.438Z,1.08
2023-02-27T09:44:10.341Z,0.83
2023-02-27T09:45:27.431Z,0.83
2023-02-27T09:46:44.311Z,1.37
2023-02-27T09:48:01.320Z,0.81
2023-02-27T09:49:18.361Z,1.12
2023-02-27T09:50:35.370Z,1.4
2023-02-27T09:51:53.406Z,1.71
2023-02-27T09:53:09.340Z,1.63
2023-02-27T09:54:26.365Z,1.59
2023-02-27T09:55:43.347Z,2.14
2023-02-27T09:57:00.344Z,1.78
2023-02-27T09:58:17.342Z,1.1
2023-02-27T09:59:34.368Z,0.9
2023-02-27T10:00:51.420Z,1.53
2023-02-27T10:02:08.434Z,1.32
2023-02-27T10:03:25.491Z,2.29
2023-02-27T10:04:42.344Z,1.52
2023-02-27T10:05:59.562Z,2.36
2023-02-27T10:07:16.377Z,2.35
2023-02-27T10:08:33.378Z,1.74
2023-02-27T10:09:50.385Z,0.82
2023-02-27T10:11:07.361Z,1.54
2023-02-27T10:12:24.948Z,0.93
2023-02-27T10:13:42.394Z,0.88
2023-02-27T10:14:59.377Z,0.63
2023-02-27T10:16:16.921Z,0.79
2023-02-27T10:17:33.368Z,0.41
2023-02-27T10:18:50.357Z,0.53
2023-02-27T10:20:07.555Z,0.49
2023-02-27T10:21:24.409Z,0.35
2023-02-27T10:22:41.358Z,0.31
2023-02-27T10:23:58.392Z,1.19
2023-02-27T10:25:30.076Z,1.48
2023-02-27T10:26:32.524Z,0.6
2023-02-27T10:27:49.378Z,0.56
2023-02-27T10:29:06.382Z,0.96
2023-02-27T10:30:29.143Z,0.89
2023-02-27T10:31:40.458Z,1.17
2023-02-27T10:32:57.407Z,0.63
2023-02-27T10:34:14.410Z,0.87
2023-02-27T10:35:31.408Z,0.37
2023-02-27T10:36:48.988Z,0.49
2023-02-27T10:38:05.402Z,0.5
2023-02-27T10:39:22.638Z,0.39
2023-02-27T10:40:39.399Z,0.44
2023-02-27T10:41:56.420Z,0.53
2023-02-27T10:43:13.407Z,0.5
2023-02-27T10:44:30.449Z,0.44
2023-02-27T10:45:47.410Z,0.56
2023-02-27T10:47:04.490Z,0.78
2023-02-27T10:48:21.433Z,0.41
2023-02-27T10:49:38.404Z,0.42
2023-02-27T10:50:55.425Z,0.47
2023-02-27T10:52:12.419Z,0.63
2023-02-27T10:53:29.416Z,0.43
2023-02-27T10:54:46.495Z,0.51
2023-02-27T10:56:04.143Z,0.54
2023-02-27T10:57:21.424Z,0.32
2023-02-27T10:58:38.434Z,0.74
2023-02-27T10:59:55.572Z,0.67
2023-02-27T11:01:12.535Z,0.81
2023-02-27T11:02:29.620Z,1.22
2023-02-27T11:03:46.471Z,0.42
2023-02-27T11:05:03.454Z,0.62
2023-02-27T11:06:20.465Z,0.43
2023-02-27T11:07:37.417Z,1.49
2023-02-27T11:08:54.468Z,1.35
2023-02-27T11:10:11.524Z,0.92
2023-02-27T11:11:30.277Z,1.71
2023-02-27T11:12:47.507Z,1.9
2023-02-27T11:14:04.832Z,1.26
2023-02-27T11:15:21.471Z,1.09
2023-02-27T11:16:38.479Z,2.13
2023-02-27T11:17:55.628Z,2.04
2023-02-27T11:19:14.438Z,1.49
2023-02-27T11:20:29.515Z,1.23
2023-02-27T11:21:46.484Z,0.83
2023-02-27T11:23:03.567Z,0.67
2023-02-27T11:24:20.841Z,1.57
2023-02-27T11:25:37.446Z,0.75
2023-02-27T11:26:54.500Z,1.37
2023-02-27T11:28:11.529Z,0.57
2023-02-27T11:29:28.486Z,1.15
2023-02-27T11:30:45.561Z,1.01
2023-02-27T11:32:02.608Z,2
2023-02-27T11:33:19.629Z,1.3
2023-02-27T11:34:36.665Z,1.9
2023-02-27T11:35:55.944Z,2.27
2023-02-27T11:37:10.753Z,1.75
2023-02-27T11:38:27.480Z,1.26
2023-02-27T11:39:45.199Z,0.84
2023-02-27T11:41:01.478Z,0.85
2023-02-27T11:42:18.540Z,0.81
2023-02-27T11:43:35.508Z,0.94
2023-02-27T11:44:52.569Z,1.29
2023-02-27T11:46:23.317Z,0.58
2023-02-27T11:47:26.624Z,1.26
2023-02-27T11:48:43.593Z,1.62
2023-02-27T11:50:00.608Z,0.89
2023-02-27T11:51:17.505Z,0.74
2023-02-27T11:52:35.619Z,0.74
2023-02-27T11:53:52.532Z,1.01
2023-02-27T11:55:09.524Z,0.55
2023-02-27T11:56:26.496Z,1.06
2023-02-27T11:57:43.487Z,0.95
2023-02-27T11:59:03.840Z,1.09
2023-02-27T12:00:20.641Z,0.53
2023-02-27T12:01:37.512Z,1.18
2023-02-27T12:02:55.035Z,1.94
2023-02-27T12:04:11.686Z,1.04
2023-02-27T12:05:28.509Z,1.11
2023-02-27T12:06:45.516Z,1.6
2023-02-27T12:08:02.543Z,0.63
2023-02-27T12:09:19.897Z,0.32
2023-02-27T12:10:36.522Z,0.44
2023-02-27T12:11:53.538Z,0.55
2023-02-27T12:13:10.522Z,0.24
2023-02-27T12:14:27.592Z,0.69
2023-02-27T12:15:44.560Z,1.02
2023-02-27T12:17:01.532Z,1.04
2023-02-27T12:18:18.536Z,1.63
2023-02-27T12:19:35.616Z,1.31
2023-02-27T12:20:52.557Z,0.69
2023-02-27T12:22:09.544Z,1.53
2023-02-27T12:23:26.587Z,0.64
2023-02-27T12:24:43.571Z,1.73
2023-02-27T12:26:00.555Z,1.3
2023-02-27T12:27:17.665Z,1.33
2023-02-27T12:28:34.699Z,1.42
2023-02-27T12:29:51.562Z,0.78
2023-02-27T12:31:08.606Z,1.38
2023-02-27T12:32:25.808Z,1.13
2023-02-27T12:33:42.581Z,1.62
2023-02-27T12:34:59.636Z,0.92
2023-02-27T12:36:16.523Z,1.01
2023-02-27T12:37:33.590Z,1.17
2023-02-27T12:38:50.605Z,0.64
2023-02-27T12:40:08.584Z,1.29
2023-02-27T12:41:25.696Z,0.78
2023-02-27T12:42:42.573Z,0.9
2023-02-27T12:43:59.556Z,0.87
2023-02-27T12:45:16.595Z,1.14
2023-02-27T12:46:33.618Z,1.45
2023-02-27T12:47:50.606Z,1.61
2023-02-27T12:49:09.020Z,0.79
2023-02-27T12:50:24.705Z,1.73
2023-02-27T12:51:41.591Z,0.85
2023-02-27T12:52:58.547Z,0.61
2023-02-27T12:54:15.536Z,0.51
2023-02-27T12:55:32.618Z,0.59
2023-02-27T12:56:49.563Z,1
2023-02-27T12:58:06.624Z,0.95
2023-02-27T12:59:23.563Z,1
2023-02-27T13:00:40.627Z,1.39
2023-02-27T13:01:57.596Z,0.77
2023-02-27T13:03:14.604Z,1.21
2023-02-27T13:04:31.571Z,0.72
2023-02-27T13:05:48.600Z,0.84
2023-02-27T13:07:05.567Z,0.51
2023-02-27T13:08:22.635Z,0.54
2023-02-27T13:09:39.582Z,0.77
2023-02-27T13:10:56.649Z,0.91
2023-02-27T13:12:13.653Z,0.81
2023-02-27T13:13:30.588Z,0.88
2023-02-27T13:14:47.606Z,0.43
2023-02-27T13:16:04.615Z,0.69
2023-02-27T13:17:21.624Z,0.18
2023-02-27T13:18:38.614Z,0.2
2023-02-27T13:19:55.602Z,0.2
2023-02-27T13:21:12.664Z,0.35
2023-02-27T13:22:29.632Z,0.5
2023-02-27T13:23:46.681Z,0.95
2023-02-27T13:25:03.619Z,0.84
2023-02-27T13:26:20.662Z,1.49
2023-02-27T13:27:37.673Z,0.72
2023-02-27T13:28:54.640Z,1.41
2023-02-27T13:30:11.771Z,0.76
2023-02-27T13:31:28.967Z,0.62
2023-02-27T13:32:45.815Z,0.39
2023-02-27T13:34:02.645Z,0.45
2023-02-27T13:35:19.606Z,0.76
2023-02-27T13:36:36.719Z,0.66
2023-02-27T13:37:53.689Z,0.66
2023-02-27T13:39:10.635Z,0.21
2023-02-27T13:40:27.681Z,0.37
2023-02-27T13:41:44.692Z,0.38
2023-02-27T13:43:01.680Z,0.38
2023-02-27T13:44:18.761Z,0.15
2023-02-27T13:45:35.673Z,0.35
2023-02-27T13:46:52.671Z,0.35
2023-02-27T13:48:09.639Z,1.52
2023-02-27T13:49:29.447Z,0.25
2023-02-27T13:50:43.693Z,0.57
2023-02-27T13:52:00.677Z,0.43
2023-02-27T13:53:17.661Z,0.17
2023-02-27T13:54:34.663Z,0.29
2023-02-27T13:55:51.646Z,0.33
2023-02-27T13:57:08.636Z,0.22
2023-02-27T13:58:25.673Z,0.24
2023-02-27T13:59:42.731Z,0.4
2023-02-27T14:00:59.681Z,0.34
2023-02-27T14:02:16.707Z,0.31
2023-02-27T14:03:33.667Z,0.08
2023-02-27T14:04:50.718Z,0.26
2023-02-27T14:06:07.721Z,0.11
2023-02-27T14:07:24.701Z,0.29
2023-02-27T14:08:41.661Z,0
2023-02-27T14:09:58.798Z,0.12
2023-02-27T14:11:15.663Z,0.36
2023-02-27T14:12:43.894Z,0.19
2023-02-27T14:13:49.665Z,0.23
2023-02-27T14:15:06.716Z,0
2023-02-27T14:16:23.804Z,0.19
2023-02-27T14:17:40.716Z,0.28
2023-02-27T14:18:57.667Z,0
2023-02-27T14:20:14.668Z,0.21
2023-02-27T14:21:31.686Z,0
2023-02-27T14:22:48.747Z,0.1
2023-02-27T14:24:05.698Z,0.32
2023-02-27T14:25:22.706Z,0.32
2023-02-27T14:26:39.725Z,0.51
2023-02-27T14:27:59.916Z,0.29
2023-02-27T14:29:23.789Z,0.61
2023-02-27T14:30:40.839Z,0.64
2023-02-27T14:31:57.696Z,0.35
2023-02-27T14:33:14.764Z,0.63
2023-02-27T14:34:31.805Z,0.22
2023-02-27T14:35:48.766Z,0.53
2023-02-27T14:37:05.707Z,1.35
2023-02-27T14:38:23.000Z,0.49
2023-02-27T14:39:40.011Z,0.7
2023-02-27T14:40:56.742Z,0.34
2023-02-27T14:42:14.095Z,0.54
2023-02-27T14:43:30.766Z,0.7
2023-02-27T14:44:47.781Z,0.47
2023-02-27T14:46:04.828Z,0.43
2023-02-27T14:47:21.724Z,0.67
2023-02-27T14:48:39.100Z,0.43
2023-02-27T14:49:55.930Z,0.71
2023-02-27T14:51:12.743Z,0.31
2023-02-27T14:52:29.891Z,1.21
2023-02-27T14:53:46.768Z,1.28
2023-02-27T14:55:03.865Z,0.5
2023-02-27T14:56:20.785Z,0.33
2023-02-27T14:57:37.766Z,0.73
2023-02-27T14:59:03.520Z,0.62
2023-02-27T15:00:11.845Z,0.26
2023-02-27T15:01:29.181Z,0.46
2023-02-27T15:02:45.738Z,0.37
2023-02-27T15:04:02.845Z,0.41
2023-02-27T15:05:19.781Z,0.38
2023-02-27T15:06:37.328Z,0.34
2023-02-27T15:07:53.862Z,0.49
2023-02-27T15:09:10.816Z,0.4
2023-02-27T15:10:27.758Z,0.28
2023-02-27T15:11:51.403Z,0.31
2023-02-27T15:13:01.781Z,0.22
2023-02-27T15:14:18.784Z,0.81
2023-02-27T15:15:35.785Z,0.59
2023-02-27T15:16:55.344Z,0.5
2023-02-27T15:18:09.795Z,0.14
2023-02-27T15:19:26.862Z,0.33
2023-02-27T15:20:43.775Z,0.06
2023-02-27T15:22:01.522Z,0.25
2023-02-27T15:23:17.980Z,0.28
2023-02-27T15:24:47.737Z,0.46
2023-02-27T15:25:51.829Z,0.55
2023-02-27T15:27:08.770Z,0.63
2023-02-27T15:28:25.847Z,0.52
2023-02-27T15:29:42.820Z,0.22
2023-02-27T15:30:59.831Z,0.61
2023-02-27T15:32:16.868Z,0.34
2023-02-27T15:33:33.825Z,0.16
2023-02-27T15:34:50.781Z,0.34
2023-02-27T15:36:07.822Z,0.34
2023-02-27T15:37:25.521Z,0.34
2023-02-27T15:38:42.809Z,0.41
2023-02-27T15:39:59.873Z,0.25
2023-02-27T15:41:16.844Z,0.32
2023-02-27T15:42:33.848Z,0.69
2023-02-27T15:43:51.017Z,0.36
2023-02-27T15:45:08.006Z,0.24
2023-02-27T15:46:25.220Z,0.26
2023-02-27T15:47:43.936Z,0.33
2023-02-27T15:48:58.793Z,0.22
2023-02-27T15:50:15.808Z,0
2023-02-27T15:51:32.852Z,0.35
2023-02-27T15:52:49.784Z,0.51
2023-02-27T15:54:07.186Z,0.26
2023-02-27T15:55:23.860Z,0.46
2023-02-27T15:56:40.833Z,0.26
2023-02-27T15:58:03.020Z,0.28
2023-02-27T15:59:14.909Z,0.13
2023-02-27T16:00:31.868Z,0.17
2023-02-27T16:01:48.835Z,0.38
2023-02-27T16:03:05.907Z,0.37
2023-02-27T16:04:22.815Z,0.43
2023-02-27T16:05:39.833Z,0.37
2023-02-27T16:06:56.823Z,0.26
2023-02-27T16:08:15.279Z,0.53
2023-02-27T16:09:32.866Z,0.33
2023-02-27T16:10:49.895Z,0.42
2023-02-27T16:12:07.066Z,0.29
2023-02-27T16:13:23.888Z,0.31
2023-02-27T16:14:40.852Z,0.3
2023-02-27T16:15:57.896Z,0.14
2023-02-27T16:17:14.860Z,0.46
2023-02-27T16:18:32.904Z,0.31
2023-02-27T16:19:49.969Z,0.44
2023-02-27T16:21:06.864Z,0.45
2023-02-27T16:22:23.883Z,0.09
2023-02-27T16:23:40.878Z,0.18
2023-02-27T16:24:57.844Z,0.24
2023-02-27T16:26:14.863Z,0
2023-02-27T16:27:31.856Z,0.23
2023-02-27T16:28:48.916Z,0.46
2023-02-27T16:30:05.866Z,0.34
2023-02-27T16:31:22.866Z,0.4
2023-02-27T16:32:39.871Z,0.36
2023-02-27T16:33:56.894Z,0.15
2023-02-27T16:35:13.853Z,0.57
2023-02-27T16:36:31.294Z,0.3
2023-02-27T16:37:47.907Z,0.31
2023-02-27T16:39:04.878Z,0
2023-02-27T16:40:22.828Z,0.42
2023-02-27T16:41:39.908Z,0.2
2023-02-27T16:42:56.877Z,0.2
2023-02-27T16:44:13.899Z,0.25
2023-02-27T16:45:30.874Z,0.31
2023-02-27T16:46:47.929Z,0.36
2023-02-27T16:48:04.904Z,0.22
2023-02-27T16:49:21.860Z,0.34
2023-02-27T16:50:38.894Z,0.2
2023-02-27T16:51:55.874Z,0.18
2023-02-27T16:53:12.873Z,0.19
2023-02-27T16:54:29.938Z,0.6
2023-02-27T16:55:46.899Z,0.36
2023-02-27T16:57:03.944Z,0.19
2023-02-27T16:58:20.894Z,0.42
2023-02-27T16:59:37.918Z,0.33
2023-02-27T17:00:55.019Z,0.23
2023-02-27T17:02:11.959Z,0.25
2023-02-27T17:03:28.904Z,0.21
2023-02-27T17:04:46.046Z,0.37
2023-02-27T17:06:02.894Z,0
2023-02-27T17:07:19.930Z,0.11
2023-02-27T17:08:36.961Z,0.14
2023-02-27T17:09:53.967Z,0.29
2023-02-27T17:11:10.941Z,0.46